sensor_id;sensor_type;location;lat;lon;timestamp;P1;durP1;ratioP1;P2;durP2;ratioP2
4911;SDS011;2471;47.056;8.350;2023-05-02T00:02:12;3.57;;;3.27;;
4911;SDS011;2471;47.056;8.350;2023-05-02T00:04:38;3.37;;;3.00;;
4911;SDS011;2471;47.056;8.350;2023-05-02T00:07:04;3.63;;;3.33;;
4911;SDS011;2471;47.056;8.350;2023-05-02T00:09:30;4.10;;;3.67;;
4911;SDS011;2471;47.056;8.350;2023-05-02T00:11:56;3.60;;;3.30;;
4911;SDS011;2471;47.056;8.350;2023-05-02T00:14:23;3.77;;;3.47;;
4911;SDS011;2471;47.056;8.350;2023-05-02T00:16:49;3.10;;;2.90;;
4911;SDS011;2471;47.056;8.350;2023-05-02T00:19:15;6.63;;;3.00;;
4911;SDS011;2471;47.056;8.350;2023-05-02T00:21:41;3.30;;;3.00;;
4911;SDS011;2471;47.056;8.350;2023-05-02T00:24:07;5.13;;;3.20;;
4911;SDS011;2471;47.056;8.350;2023-05-02T00:26:33;4.50;;;3.33;;
4911;SDS011;2471;47.056;8.350;2023-05-02T00:28:59;4.80;;;4.30;;
4911;SDS011;2471;47.056;8.350;2023-05-02T00:31:25;3.70;;;3.20;;
4911;SDS011;2471;47.056;8.350;2023-05-02T00:33:51;3.70;;;3.40;;
4911;SDS011;2471;47.056;8.350;2023-05-02T00:36:17;3.43;;;3.13;;
4911;SDS011;2471;47.056;8.350;2023-05-02T00:38:43;2.67;;;2.47;;
4911;SDS011;2471;47.056;8.350;2023-05-02T00:41:09;3.30;;;3.00;;
4911;SDS011;2471;47.056;8.350;2023-05-02T00:43:35;3.53;;;3.23;;
4911;SDS011;2471;47.056;8.350;2023-05-02T00:46:03;3.40;;;3.10;;
4911;SDS011;2471;47.056;8.350;2023-05-02T00:48:29;4.43;;;4.07;;
4911;SDS011;2471;47.056;8.350;2023-05-02T00:50:56;4.70;;;3.40;;
4911;SDS011;2471;47.056;8.350;2023-05-02T00:53:22;4.10;;;3.60;;
4911;SDS011;2471;47.056;8.350;2023-05-02T00:55:48;3.13;;;2.93;;
4911;SDS011;2471;47.056;8.350;2023-05-02T00:58:14;3.57;;;3.00;;
4911;SDS011;2471;47.056;8.350;2023-05-02T01:11:47;3.23;;;2.93;;
4911;SDS011;2471;47.056;8.350;2023-05-02T01:14:13;3.13;;;2.90;;
4911;SDS011;2471;47.056;8.350;2023-05-02T01:16:40;5.20;;;2.63;;
4911;SDS011;2471;47.056;8.350;2023-05-02T01:19:30;10.13;;;3.10;;
4911;SDS011;2471;47.056;8.350;2023-05-02T01:21:54;3.77;;;3.27;;
4911;SDS011;2471;47.056;8.350;2023-05-02T01:24:24;4.67;;;3.67;;
4911;SDS011;2471;47.056;8.350;2023-05-02T01:27:00;5.00;;;4.07;;
4911;SDS011;2471;47.056;8.350;2023-05-02T01:29:32;8.73;;;3.70;;
4911;SDS011;2471;47.056;8.350;2023-05-02T01:31:58;3.70;;;3.40;;
4911;SDS011;2471;47.056;8.350;2023-05-02T01:34:25;4.17;;;3.77;;
4911;SDS011;2471;47.056;8.350;2023-05-02T01:36:52;6.43;;;3.47;;
4911;SDS011;2471;47.056;8.350;2023-05-02T01:39:19;4.57;;;3.40;;
4911;SDS011;2471;47.056;8.350;2023-05-02T01:41:48;4.83;;;3.70;;
4911;SDS011;2471;47.056;8.350;2023-05-02T01:44:15;3.50;;;3.20;;
4911;SDS011;2471;47.056;8.350;2023-05-02T01:46:43;4.07;;;3.77;;
4911;SDS011;2471;47.056;8.350;2023-05-02T01:49:09;3.37;;;3.07;;
4911;SDS011;2471;47.056;8.350;2023-05-02T01:51:36;12.93;;;3.80;;
4911;SDS011;2471;47.056;8.350;2023-05-02T01:54:04;3.20;;;2.97;;
4911;SDS011;2471;47.056;8.350;2023-05-02T01:56:31;3.20;;;3.00;;
4911;SDS011;2471;47.056;8.350;2023-05-02T01:58:58;3.60;;;3.30;;
4911;SDS011;2471;47.056;8.350;2023-05-02T02:01:25;3.30;;;3.10;;
4911;SDS011;2471;47.056;8.350;2023-05-02T02:03:55;3.33;;;3.13;;
4911;SDS011;2471;47.056;8.350;2023-05-02T02:06:22;3.20;;;2.90;;
4911;SDS011;2471;47.056;8.350;2023-05-02T02:08:48;5.90;;;3.20;;
4911;SDS011;2471;47.056;8.350;2023-05-02T02:11:16;3.10;;;2.90;;
4911;SDS011;2471;47.056;8.350;2023-05-02T02:13:47;7.27;;;3.97;;
4911;SDS011;2471;47.056;8.350;2023-05-02T02:16:17;3.77;;;3.47;;
4911;SDS011;2471;47.056;8.350;2023-05-02T02:18:44;2.90;;;2.70;;
4911;SDS011;2471;47.056;8.350;2023-05-02T02:21:10;6.83;;;4.13;;
4911;SDS011;2471;47.056;8.350;2023-05-02T02:23:37;3.77;;;3.47;;
4911;SDS011;2471;47.056;8.350;2023-05-02T02:26:04;3.53;;;3.23;;
4911;SDS011;2471;47.056;8.350;2023-05-02T02:28:32;2.90;;;2.70;;
4911;SDS011;2471;47.056;8.350;2023-05-02T02:30:58;3.70;;;3.30;;
4911;SDS011;2471;47.056;8.350;2023-05-02T02:33:25;3.73;;;3.47;;
4911;SDS011;2471;47.056;8.350;2023-05-02T02:35:57;3.30;;;3.00;;
4911;SDS011;2471;47.056;8.350;2023-05-02T02:38:25;4.00;;;3.60;;
4911;SDS011;2471;47.056;8.350;2023-05-02T02:40:56;3.90;;;3.50;;
4911;SDS011;2471;47.056;8.350;2023-05-02T02:43:26;4.30;;;3.90;;
4911;SDS011;2471;47.056;8.350;2023-05-02T02:48:34;4.43;;;3.40;;
4911;SDS011;2471;47.056;8.350;2023-05-02T02:56:41;8.93;;;3.60;;
4911;SDS011;2471;47.056;8.350;2023-05-02T02:59:22;3.47;;;3.20;;
4911;SDS011;2471;47.056;8.350;2023-05-02T03:01:55;3.87;;;3.47;;
4911;SDS011;2471;47.056;8.350;2023-05-02T03:04:21;4.30;;;3.90;;
4911;SDS011;2471;47.056;8.350;2023-05-02T03:06:48;4.60;;;4.00;;
4911;SDS011;2471;47.056;8.350;2023-05-02T03:09:14;3.90;;;3.30;;
4911;SDS011;2471;47.056;8.350;2023-05-02T03:11:43;3.73;;;3.47;;
4911;SDS011;2471;47.056;8.350;2023-05-02T03:14:12;3.57;;;3.07;;
4911;SDS011;2471;47.056;8.350;2023-05-02T03:16:38;3.43;;;3.13;;
4911;SDS011;2471;47.056;8.350;2023-05-02T03:19:05;3.60;;;3.20;;
4911;SDS011;2471;47.056;8.350;2023-05-02T03:21:32;7.33;;;3.87;;
4911;SDS011;2471;47.056;8.350;2023-05-02T03:24:02;4.43;;;4.03;;
4911;SDS011;2471;47.056;8.350;2023-05-02T03:26:28;4.10;;;3.70;;
4911;SDS011;2471;47.056;8.350;2023-05-02T03:28:54;3.90;;;3.60;;
4911;SDS011;2471;47.056;8.350;2023-05-02T03:31:20;3.77;;;2.90;;
4911;SDS011;2471;47.056;8.350;2023-05-02T03:33:47;18.13;;;4.80;;
4911;SDS011;2471;47.056;8.350;2023-05-02T03:36:13;3.10;;;2.83;;
4911;SDS011;2471;47.056;8.350;2023-05-02T03:38:39;4.43;;;4.03;;
4911;SDS011;2471;47.056;8.350;2023-05-02T03:41:05;4.20;;;3.80;;
4911;SDS011;2471;47.056;8.350;2023-05-02T03:43:31;5.67;;;3.37;;
4911;SDS011;2471;47.056;8.350;2023-05-02T03:45:57;6.13;;;3.80;;
4911;SDS011;2471;47.056;8.350;2023-05-02T03:48:28;4.30;;;3.20;;
4911;SDS011;2471;47.056;8.350;2023-05-02T03:50:54;6.10;;;3.80;;
4911;SDS011;2471;47.056;8.350;2023-05-02T03:53:20;4.97;;;3.93;;
4911;SDS011;2471;47.056;8.350;2023-05-02T03:55:46;3.97;;;3.57;;
4911;SDS011;2471;47.056;8.350;2023-05-02T03:58:12;4.27;;;3.87;;
4911;SDS011;2471;47.056;8.350;2023-05-02T04:00:38;4.20;;;3.80;;
4911;SDS011;2471;47.056;8.350;2023-05-02T04:03:04;7.40;;;4.40;;
4911;SDS011;2471;47.056;8.350;2023-05-02T04:05:31;5.10;;;3.70;;
4911;SDS011;2471;47.056;8.350;2023-05-02T04:07:57;6.13;;;5.40;;
4911;SDS011;2471;47.056;8.350;2023-05-02T04:10:23;9.77;;;7.37;;
4911;SDS011;2471;47.056;8.350;2023-05-02T04:12:49;9.57;;;7.47;;
4911;SDS011;2471;47.056;8.350;2023-05-02T04:15:15;10.30;;;5.33;;
4911;SDS011;2471;47.056;8.350;2023-05-02T04:17:41;9.20;;;4.33;;
4911;SDS011;2471;47.056;8.350;2023-05-02T04:20:07;4.80;;;4.30;;
4911;SDS011;2471;47.056;8.350;2023-05-02T04:22:33;4.70;;;4.30;;
4911;SDS011;2471;47.056;8.350;2023-05-02T04:24:59;6.00;;;4.03;;
4911;SDS011;2471;47.056;8.350;2023-05-02T04:27:25;7.57;;;4.30;;
4911;SDS011;2471;47.056;8.350;2023-05-02T04:29:51;9.20;;;5.17;;
4911;SDS011;2471;47.056;8.350;2023-05-02T04:32:17;5.37;;;4.87;;
4911;SDS011;2471;47.056;8.350;2023-05-02T04:34:43;5.93;;;5.10;;
4911;SDS011;2471;47.056;8.350;2023-05-02T04:37:09;8.10;;;5.23;;
4911;SDS011;2471;47.056;8.350;2023-05-02T04:39:35;5.60;;;4.13;;
4911;SDS011;2471;47.056;8.350;2023-05-02T04:42:02;6.17;;;4.60;;
4911;SDS011;2471;47.056;8.350;2023-05-02T04:44:28;7.77;;;5.00;;
4911;SDS011;2471;47.056;8.350;2023-05-02T04:46:54;11.50;;;4.90;;
4911;SDS011;2471;47.056;8.350;2023-05-02T04:49:19;4.23;;;3.83;;
4911;SDS011;2471;47.056;8.350;2023-05-02T04:51:45;5.93;;;5.07;;
4911;SDS011;2471;47.056;8.350;2023-05-02T04:54:11;7.27;;;5.80;;
4911;SDS011;2471;47.056;8.350;2023-05-02T04:56:37;5.47;;;4.90;;
4911;SDS011;2471;47.056;8.350;2023-05-02T04:59:04;4.70;;;4.30;;
4911;SDS011;2471;47.056;8.350;2023-05-02T05:01:30;4.60;;;4.20;;
4911;SDS011;2471;47.056;8.350;2023-05-02T05:03:56;9.40;;;4.47;;
4911;SDS011;2471;47.056;8.350;2023-05-02T05:06:22;6.27;;;4.87;;
4911;SDS011;2471;47.056;8.350;2023-05-02T05:08:48;4.97;;;4.47;;
4911;SDS011;2471;47.056;8.350;2023-05-02T05:11:14;7.47;;;4.60;;
4911;SDS011;2471;47.056;8.350;2023-05-02T05:13:40;9.50;;;4.80;;
4911;SDS011;2471;47.056;8.350;2023-05-02T05:16:06;5.53;;;4.63;;
4911;SDS011;2471;47.056;8.350;2023-05-02T05:18:32;9.33;;;5.40;;
4911;SDS011;2471;47.056;8.350;2023-05-02T05:21:10;7.00;;;5.20;;
4911;SDS011;2471;47.056;8.350;2023-05-02T05:23:36;5.20;;;4.70;;
4911;SDS011;2471;47.056;8.350;2023-05-02T05:26:09;6.10;;;5.50;;
4911;SDS011;2471;47.056;8.350;2023-05-02T05:28:35;5.77;;;5.00;;
4911;SDS011;2471;47.056;8.350;2023-05-02T05:31:04;5.57;;;5.07;;
4911;SDS011;2471;47.056;8.350;2023-05-02T05:33:31;9.40;;;4.80;;
4911;SDS011;2471;47.056;8.350;2023-05-02T05:36:02;7.40;;;4.30;;
4911;SDS011;2471;47.056;8.350;2023-05-02T05:38:28;5.53;;;4.63;;
4911;SDS011;2471;47.056;8.350;2023-05-02T05:40:54;5.57;;;5.07;;
4911;SDS011;2471;47.056;8.350;2023-05-02T05:43:20;6.80;;;5.47;;
4911;SDS011;2471;47.056;8.350;2023-05-02T05:45:46;4.43;;;4.03;;
4911;SDS011;2471;47.056;8.350;2023-05-02T05:48:12;5.20;;;4.60;;
4911;SDS011;2471;47.056;8.350;2023-05-02T05:50:38;4.47;;;4.00;;
4911;SDS011;2471;47.056;8.350;2023-05-02T05:53:04;4.63;;;4.23;;
4911;SDS011;2471;47.056;8.350;2023-05-02T05:55:30;4.60;;;4.20;;
4911;SDS011;2471;47.056;8.350;2023-05-02T05:57:56;5.17;;;4.67;;
4911;SDS011;2471;47.056;8.350;2023-05-02T06:00:22;5.67;;;5.10;;
4911;SDS011;2471;47.056;8.350;2023-05-02T06:02:48;5.60;;;5.10;;
4911;SDS011;2471;47.056;8.350;2023-05-02T06:05:14;9.17;;;4.50;;
4911;SDS011;2471;47.056;8.350;2023-05-02T06:07:40;8.80;;;4.40;;
4911;SDS011;2471;47.056;8.350;2023-05-02T06:10:06;11.47;;;5.20;;
4911;SDS011;2471;47.056;8.350;2023-05-02T06:12:33;6.87;;;4.60;;
4911;SDS011;2471;47.056;8.350;2023-05-02T06:14:59;4.23;;;3.90;;
4911;SDS011;2471;47.056;8.350;2023-05-02T06:17:25;7.17;;;5.17;;
4911;SDS011;2471;47.056;8.350;2023-05-02T06:19:51;6.40;;;4.37;;
4911;SDS011;2471;47.056;8.350;2023-05-02T06:22:17;5.37;;;4.07;;
4911;SDS011;2471;47.056;8.350;2023-05-02T06:24:43;4.40;;;4.00;;
4911;SDS011;2471;47.056;8.350;2023-05-02T06:27:09;5.60;;;4.60;;
4911;SDS011;2471;47.056;8.350;2023-05-02T06:29:35;6.47;;;4.60;;
4911;SDS011;2471;47.056;8.350;2023-05-02T06:32:01;5.10;;;4.47;;
4911;SDS011;2471;47.056;8.350;2023-05-02T06:34:30;8.10;;;5.87;;
4911;SDS011;2471;47.056;8.350;2023-05-02T06:36:56;5.50;;;5.00;;
4911;SDS011;2471;47.056;8.350;2023-05-02T06:39:22;6.80;;;5.40;;
4911;SDS011;2471;47.056;8.350;2023-05-02T06:41:48;8.53;;;5.60;;
4911;SDS011;2471;47.056;8.350;2023-05-02T06:44:14;13.40;;;5.90;;
4911;SDS011;2471;47.056;8.350;2023-05-02T06:46:40;6.10;;;5.60;;
4911;SDS011;2471;47.056;8.350;2023-05-02T06:49:06;10.73;;;5.70;;
4911;SDS011;2471;47.056;8.350;2023-05-02T06:51:32;5.93;;;5.37;;
4911;SDS011;2471;47.056;8.350;2023-05-02T06:53:58;6.80;;;5.93;;
4911;SDS011;2471;47.056;8.350;2023-05-02T06:56:24;5.63;;;5.13;;
4911;SDS011;2471;47.056;8.350;2023-05-02T06:58:50;11.33;;;5.73;;
4911;SDS011;2471;47.056;8.350;2023-05-02T07:01:16;5.93;;;5.33;;
4911;SDS011;2471;47.056;8.350;2023-05-02T07:03:42;5.20;;;4.70;;
4911;SDS011;2471;47.056;8.350;2023-05-02T07:06:08;7.43;;;4.77;;
4911;SDS011;2471;47.056;8.350;2023-05-02T07:08:34;6.80;;;5.50;;
4911;SDS011;2471;47.056;8.350;2023-05-02T07:11:01;7.60;;;5.47;;
4911;SDS011;2471;47.056;8.350;2023-05-02T07:13:27;8.07;;;5.43;;
4911;SDS011;2471;47.056;8.350;2023-05-02T07:15:53;6.00;;;4.50;;
4911;SDS011;2471;47.056;8.350;2023-05-02T07:18:19;4.87;;;4.47;;
4911;SDS011;2471;47.056;8.350;2023-05-02T07:20:45;6.93;;;4.23;;
4911;SDS011;2471;47.056;8.350;2023-05-02T07:23:11;4.37;;;3.90;;
4911;SDS011;2471;47.056;8.350;2023-05-02T07:25:37;4.57;;;4.13;;
4911;SDS011;2471;47.056;8.350;2023-05-02T07:28:04;4.17;;;3.73;;
4911;SDS011;2471;47.056;8.350;2023-05-02T07:30:30;4.47;;;4.07;;
4911;SDS011;2471;47.056;8.350;2023-05-02T07:32:56;3.90;;;3.60;;
4911;SDS011;2471;47.056;8.350;2023-05-02T07:35:22;4.37;;;3.83;;
4911;SDS011;2471;47.056;8.350;2023-05-02T07:37:48;4.23;;;3.90;;
4911;SDS011;2471;47.056;8.350;2023-05-02T07:40:14;3.50;;;3.20;;
4911;SDS011;2471;47.056;8.350;2023-05-02T07:42:40;3.17;;;2.97;;
4911;SDS011;2471;47.056;8.350;2023-05-02T07:45:06;7.67;;;3.60;;
4911;SDS011;2471;47.056;8.350;2023-05-02T07:47:32;3.30;;;3.03;;
4911;SDS011;2471;47.056;8.350;2023-05-02T07:49:58;3.33;;;3.13;;
4911;SDS011;2471;47.056;8.350;2023-05-02T07:52:24;3.20;;;3.00;;
4911;SDS011;2471;47.056;8.350;2023-05-02T07:54:50;4.43;;;3.40;;
4911;SDS011;2471;47.056;8.350;2023-05-02T07:57:17;3.87;;;3.57;;
4911;SDS011;2471;47.056;8.350;2023-05-02T07:59:43;4.80;;;3.90;;
4911;SDS011;2471;47.056;8.350;2023-05-02T08:02:09;4.23;;;3.83;;
4911;SDS011;2471;47.056;8.350;2023-05-02T08:04:37;3.70;;;3.40;;
4911;SDS011;2471;47.056;8.350;2023-05-02T08:07:03;4.30;;;3.40;;
4911;SDS011;2471;47.056;8.350;2023-05-02T08:09:29;4.63;;;4.00;;
4911;SDS011;2471;47.056;8.350;2023-05-02T08:11:55;4.50;;;4.10;;
4911;SDS011;2471;47.056;8.350;2023-05-02T08:14:21;10.30;;;4.60;;
4911;SDS011;2471;47.056;8.350;2023-05-02T08:16:47;5.10;;;4.70;;
4911;SDS011;2471;47.056;8.350;2023-05-02T08:19:13;4.20;;;3.90;;
4911;SDS011;2471;47.056;8.350;2023-05-02T08:21:39;4.07;;;3.77;;
4911;SDS011;2471;47.056;8.350;2023-05-02T08:24:05;7.00;;;4.03;;
4911;SDS011;2471;47.056;8.350;2023-05-02T08:26:31;4.37;;;3.97;;
4911;SDS011;2471;47.056;8.350;2023-05-02T08:28:58;3.97;;;3.60;;
4911;SDS011;2471;47.056;8.350;2023-05-02T08:31:24;4.63;;;4.23;;
4911;SDS011;2471;47.056;8.350;2023-05-02T08:33:50;5.53;;;4.63;;
4911;SDS011;2471;47.056;8.350;2023-05-02T08:36:16;5.83;;;4.77;;
4911;SDS011;2471;47.056;8.350;2023-05-02T08:38:44;6.30;;;4.63;;
4911;SDS011;2471;47.056;8.350;2023-05-02T08:41:10;4.30;;;3.83;;
4911;SDS011;2471;47.056;8.350;2023-05-02T08:43:37;10.70;;;7.67;;
4911;SDS011;2471;47.056;8.350;2023-05-02T08:46:04;7.83;;;4.80;;
4911;SDS011;2471;47.056;8.350;2023-05-02T08:48:36;6.50;;;4.20;;
4911;SDS011;2471;47.056;8.350;2023-05-02T08:51:03;3.97;;;3.67;;
4911;SDS011;2471;47.056;8.350;2023-05-02T08:53:35;4.43;;;3.70;;
4911;SDS011;2471;47.056;8.350;2023-05-02T08:56:02;8.20;;;4.47;;
4911;SDS011;2471;47.056;8.350;2023-05-02T08:58:28;6.97;;;4.00;;
4911;SDS011;2471;47.056;8.350;2023-05-02T09:00:59;5.80;;;3.87;;
4911;SDS011;2471;47.056;8.350;2023-05-02T09:03:30;4.70;;;4.30;;
4911;SDS011;2471;47.056;8.350;2023-05-02T09:08:31;5.10;;;4.23;;
4911;SDS011;2471;47.056;8.350;2023-05-02T09:10:58;3.70;;;3.40;;
4911;SDS011;2471;47.056;8.350;2023-05-02T09:13:34;5.27;;;3.60;;
4911;SDS011;2471;47.056;8.350;2023-05-02T09:16:02;3.63;;;3.33;;
4911;SDS011;2471;47.056;8.350;2023-05-02T09:18:29;3.53;;;3.30;;
4911;SDS011;2471;47.056;8.350;2023-05-02T09:20:56;3.00;;;2.80;;
4911;SDS011;2471;47.056;8.350;2023-05-02T09:23:39;3.43;;;2.90;;
4911;SDS011;2471;47.056;8.350;2023-05-02T09:26:09;5.53;;;3.60;;
4911;SDS011;2471;47.056;8.350;2023-05-02T09:28:42;3.73;;;3.33;;
4911;SDS011;2471;47.056;8.350;2023-05-02T09:31:10;3.40;;;3.10;;
4911;SDS011;2471;47.056;8.350;2023-05-02T09:33:37;3.33;;;3.10;;
4911;SDS011;2471;47.056;8.350;2023-05-02T09:36:04;4.40;;;3.40;;
4911;SDS011;2471;47.056;8.350;2023-05-02T09:38:31;4.03;;;3.63;;
4911;SDS011;2471;47.056;8.350;2023-05-02T09:40:57;3.70;;;3.43;;
4911;SDS011;2471;47.056;8.350;2023-05-02T09:43:24;4.17;;;3.63;;
4911;SDS011;2471;47.056;8.350;2023-05-02T09:45:57;4.47;;;3.50;;
4911;SDS011;2471;47.056;8.350;2023-05-02T09:48:23;3.70;;;3.40;;
4911;SDS011;2471;47.056;8.350;2023-05-02T09:50:49;2.90;;;2.70;;
4911;SDS011;2471;47.056;8.350;2023-05-02T09:53:15;3.63;;;3.33;;
4911;SDS011;2471;47.056;8.350;2023-05-02T09:55:41;7.13;;;3.50;;
4911;SDS011;2471;47.056;8.350;2023-05-02T09:58:07;3.30;;;3.03;;
4911;SDS011;2471;47.056;8.350;2023-05-02T10:00:44;6.67;;;4.50;;
4911;SDS011;2471;47.056;8.350;2023-05-02T10:03:10;5.97;;;4.30;;
4911;SDS011;2471;47.056;8.350;2023-05-02T10:05:40;5.27;;;4.77;;
4911;SDS011;2471;47.056;8.350;2023-05-02T10:08:07;3.70;;;3.40;;
4911;SDS011;2471;47.056;8.350;2023-05-02T10:10:46;4.70;;;4.30;;
4911;SDS011;2471;47.056;8.350;2023-05-02T10:13:14;4.50;;;4.10;;
4911;SDS011;2471;47.056;8.350;2023-05-02T10:15:42;6.27;;;3.50;;
4911;SDS011;2471;47.056;8.350;2023-05-02T10:18:12;6.60;;;3.50;;
4911;SDS011;2471;47.056;8.350;2023-05-02T10:20:42;4.83;;;4.40;;
4911;SDS011;2471;47.056;8.350;2023-05-02T10:23:09;4.20;;;3.80;;
4911;SDS011;2471;47.056;8.350;2023-05-02T10:25:35;4.00;;;3.70;;
4911;SDS011;2471;47.056;8.350;2023-05-02T10:28:01;5.50;;;4.17;;
4911;SDS011;2471;47.056;8.350;2023-05-02T10:30:28;4.53;;;3.77;;
4911;SDS011;2471;47.056;8.350;2023-05-02T10:32:54;3.67;;;3.37;;
4911;SDS011;2471;47.056;8.350;2023-05-02T10:35:24;5.20;;;4.80;;
4911;SDS011;2471;47.056;8.350;2023-05-02T10:37:50;4.33;;;3.93;;
4911;SDS011;2471;47.056;8.350;2023-05-02T10:40:17;3.83;;;3.53;;
4911;SDS011;2471;47.056;8.350;2023-05-02T10:42:45;4.47;;;3.83;;
4911;SDS011;2471;47.056;8.350;2023-05-02T10:45:11;4.23;;;3.60;;
4911;SDS011;2471;47.056;8.350;2023-05-02T10:47:38;6.10;;;5.27;;
4911;SDS011;2471;47.056;8.350;2023-05-02T10:50:04;4.53;;;4.00;;
4911;SDS011;2471;47.056;8.350;2023-05-02T10:52:35;5.27;;;4.77;;
4911;SDS011;2471;47.056;8.350;2023-05-02T11:02:50;5.47;;;4.50;;
4911;SDS011;2471;47.056;8.350;2023-05-02T11:05:16;5.50;;;4.77;;
4911;SDS011;2471;47.056;8.350;2023-05-02T11:07:42;7.97;;;4.70;;
4911;SDS011;2471;47.056;8.350;2023-05-02T11:12:47;5.20;;;4.17;;
4911;SDS011;2471;47.056;8.350;2023-05-02T11:15:14;6.00;;;5.20;;
4911;SDS011;2471;47.056;8.350;2023-05-02T11:20:25;6.27;;;4.30;;
4911;SDS011;2471;47.056;8.350;2023-05-02T11:22:52;4.60;;;4.20;;
4911;SDS011;2471;47.056;8.350;2023-05-02T11:25:31;5.37;;;4.87;;
4911;SDS011;2471;47.056;8.350;2023-05-02T11:27:57;4.53;;;4.20;;
4911;SDS011;2471;47.056;8.350;2023-05-02T11:30:39;4.05;;;3.72;;
4911;SDS011;2471;47.056;8.350;2023-05-02T11:35:32;4.77;;;4.30;;
4911;SDS011;2471;47.056;8.350;2023-05-02T11:40:29;4.80;;;4.40;;
4911;SDS011;2471;47.056;8.350;2023-05-02T11:42:55;4.30;;;3.97;;
4911;SDS011;2471;47.056;8.350;2023-05-02T11:45:21;6.60;;;3.90;;
4911;SDS011;2471;47.056;8.350;2023-05-02T11:47:57;14.30;;;4.20;;
4911;SDS011;2471;47.056;8.350;2023-05-02T11:50:23;3.90;;;3.60;;
4911;SDS011;2471;47.056;8.350;2023-05-02T11:52:50;4.13;;;3.60;;
4911;SDS011;2471;47.056;8.350;2023-05-02T11:55:16;3.97;;;3.53;;
4911;SDS011;2471;47.056;8.350;2023-05-02T11:57:42;4.03;;;3.73;;
4911;SDS011;2471;47.056;8.350;2023-05-02T12:00:08;3.87;;;3.57;;
4911;SDS011;2471;47.056;8.350;2023-05-02T12:02:43;4.30;;;3.90;;
4911;SDS011;2471;47.056;8.350;2023-05-02T12:05:10;5.43;;;4.17;;
4911;SDS011;2471;47.056;8.350;2023-05-02T12:07:37;4.77;;;4.33;;
4911;SDS011;2471;47.056;8.350;2023-05-02T12:10:04;4.43;;;4.03;;
4911;SDS011;2471;47.056;8.350;2023-05-02T12:12:30;4.07;;;3.77;;
4911;SDS011;2471;47.056;8.350;2023-05-02T12:14:56;5.07;;;4.23;;
4911;SDS011;2471;47.056;8.350;2023-05-02T12:17:22;4.50;;;4.10;;
4911;SDS011;2471;47.056;8.350;2023-05-02T12:19:48;8.70;;;3.30;;
4911;SDS011;2471;47.056;8.350;2023-05-02T12:22:15;4.53;;;4.13;;
4911;SDS011;2471;47.056;8.350;2023-05-02T12:24:41;4.00;;;3.70;;
4911;SDS011;2471;47.056;8.350;2023-05-02T12:27:11;5.10;;;4.60;;
4911;SDS011;2471;47.056;8.350;2023-05-02T12:29:40;14.97;;;9.77;;
4911;SDS011;2471;47.056;8.350;2023-05-02T12:32:06;5.50;;;4.30;;
4911;SDS011;2471;47.056;8.350;2023-05-02T12:34:36;4.10;;;3.80;;
4911;SDS011;2471;47.056;8.350;2023-05-02T12:37:03;5.30;;;3.87;;
4911;SDS011;2471;47.056;8.350;2023-05-02T12:39:35;3.97;;;3.60;;
4911;SDS011;2471;47.056;8.350;2023-05-02T12:42:08;3.97;;;3.43;;
4911;SDS011;2471;47.056;8.350;2023-05-02T12:44:35;5.60;;;4.43;;
4911;SDS011;2471;47.056;8.350;2023-05-02T12:47:02;6.00;;;5.40;;
4911;SDS011;2471;47.056;8.350;2023-05-02T12:49:28;6.13;;;4.67;;
4911;SDS011;2471;47.056;8.350;2023-05-02T12:51:56;5.13;;;4.73;;
4911;SDS011;2471;47.056;8.350;2023-05-02T12:54:22;4.23;;;3.93;;
4911;SDS011;2471;47.056;8.350;2023-05-02T12:56:49;6.30;;;5.00;;
4911;SDS011;2471;47.056;8.350;2023-05-02T12:59:31;4.53;;;4.13;;
4911;SDS011;2471;47.056;8.350;2023-05-02T13:01:57;7.43;;;4.60;;
4911;SDS011;2471;47.056;8.350;2023-05-02T13:04:33;7.70;;;4.90;;
4911;SDS011;2471;47.056;8.350;2023-05-02T13:07:00;6.40;;;4.63;;
4911;SDS011;2471;47.056;8.350;2023-05-02T13:09:26;6.57;;;4.33;;
4911;SDS011;2471;47.056;8.350;2023-05-02T13:11:52;4.80;;;4.37;;
4911;SDS011;2471;47.056;8.350;2023-05-02T13:14:18;5.20;;;4.70;;
4911;SDS011;2471;47.056;8.350;2023-05-02T13:16:44;4.33;;;3.93;;
4911;SDS011;2471;47.056;8.350;2023-05-02T13:19:10;4.80;;;4.27;;
4911;SDS011;2471;47.056;8.350;2023-05-02T13:21:36;6.77;;;4.73;;
4911;SDS011;2471;47.056;8.350;2023-05-02T13:24:02;6.30;;;4.43;;
4911;SDS011;2471;47.056;8.350;2023-05-02T13:26:28;4.63;;;4.20;;
4911;SDS011;2471;47.056;8.350;2023-05-02T13:28:54;5.13;;;4.20;;
4911;SDS011;2471;47.056;8.350;2023-05-02T13:31:20;5.97;;;5.37;;
4911;SDS011;2471;47.056;8.350;2023-05-02T13:33:46;5.10;;;4.60;;
4911;SDS011;2471;47.056;8.350;2023-05-02T13:36:12;5.77;;;5.03;;
4911;SDS011;2471;47.056;8.350;2023-05-02T13:38:38;5.90;;;4.33;;
4911;SDS011;2471;47.056;8.350;2023-05-02T13:41:04;5.07;;;4.57;;
4911;SDS011;2471;47.056;8.350;2023-05-02T13:43:30;5.33;;;4.80;;
4911;SDS011;2471;47.056;8.350;2023-05-02T13:45:56;4.90;;;4.40;;
4911;SDS011;2471;47.056;8.350;2023-05-02T13:48:22;4.30;;;3.80;;
4911;SDS011;2471;47.056;8.350;2023-05-02T13:50:49;4.80;;;4.23;;
4911;SDS011;2471;47.056;8.350;2023-05-02T13:53:15;5.30;;;4.80;;
4911;SDS011;2471;47.056;8.350;2023-05-02T13:55:41;6.07;;;4.73;;
4911;SDS011;2471;47.056;8.350;2023-05-02T13:58:07;4.60;;;4.20;;
4911;SDS011;2471;47.056;8.350;2023-05-02T14:00:33;4.23;;;3.83;;
4911;SDS011;2471;47.056;8.350;2023-05-02T14:02:58;4.03;;;3.63;;
4911;SDS011;2471;47.056;8.350;2023-05-02T14:05:24;6.00;;;5.03;;
4911;SDS011;2471;47.056;8.350;2023-05-02T14:07:50;6.40;;;5.20;;
4911;SDS011;2471;47.056;8.350;2023-05-02T14:10:16;8.50;;;7.30;;
4911;SDS011;2471;47.056;8.350;2023-05-02T14:12:42;8.00;;;7.07;;
4911;SDS011;2471;47.056;8.350;2023-05-02T14:15:08;9.90;;;7.57;;
4911;SDS011;2471;47.056;8.350;2023-05-02T14:17:34;12.67;;;6.20;;
4911;SDS011;2471;47.056;8.350;2023-05-02T14:20:00;14.50;;;7.47;;
4911;SDS011;2471;47.056;8.350;2023-05-02T14:22:26;14.03;;;7.23;;
4911;SDS011;2471;47.056;8.350;2023-05-02T14:24:52;7.30;;;6.60;;
4911;SDS011;2471;47.056;8.350;2023-05-02T14:27:18;9.40;;;7.70;;
4911;SDS011;2471;47.056;8.350;2023-05-02T14:29:44;14.93;;;6.60;;
4911;SDS011;2471;47.056;8.350;2023-05-02T14:32:10;7.63;;;5.30;;
4911;SDS011;2471;47.056;8.350;2023-05-02T14:34:36;6.27;;;5.67;;
4911;SDS011;2471;47.056;8.350;2023-05-02T14:37:02;8.50;;;6.63;;
4911;SDS011;2471;47.056;8.350;2023-05-02T14:39:28;6.43;;;5.83;;
4911;SDS011;2471;47.056;8.350;2023-05-02T14:41:54;8.20;;;4.90;;
4911;SDS011;2471;47.056;8.350;2023-05-02T14:44:20;5.77;;;5.10;;
4911;SDS011;2471;47.056;8.350;2023-05-02T14:46:46;7.13;;;6.43;;
4911;SDS011;2471;47.056;8.350;2023-05-02T14:49:12;7.20;;;4.53;;
4911;SDS011;2471;47.056;8.350;2023-05-02T14:51:38;4.87;;;4.30;;
4911;SDS011;2471;47.056;8.350;2023-05-02T14:54:05;4.83;;;4.03;;
4911;SDS011;2471;47.056;8.350;2023-05-02T14:56:34;6.63;;;4.57;;
4911;SDS011;2471;47.056;8.350;2023-05-02T14:59:00;6.10;;;5.53;;
4911;SDS011;2471;47.056;8.350;2023-05-02T15:01:26;4.03;;;3.70;;
4911;SDS011;2471;47.056;8.350;2023-05-02T15:03:52;4.57;;;4.17;;
4911;SDS011;2471;47.056;8.350;2023-05-02T15:06:19;6.67;;;6.00;;
4911;SDS011;2471;47.056;8.350;2023-05-02T15:08:46;8.10;;;6.53;;
4911;SDS011;2471;47.056;8.350;2023-05-02T15:11:12;6.90;;;6.30;;
4911;SDS011;2471;47.056;8.350;2023-05-02T15:13:38;10.20;;;6.83;;
4911;SDS011;2471;47.056;8.350;2023-05-02T15:16:04;6.27;;;5.67;;
4911;SDS011;2471;47.056;8.350;2023-05-02T15:18:30;8.20;;;5.93;;
4911;SDS011;2471;47.056;8.350;2023-05-02T15:20:56;9.67;;;7.40;;
4911;SDS011;2471;47.056;8.350;2023-05-02T15:23:22;11.03;;;6.53;;
4911;SDS011;2471;47.056;8.350;2023-05-02T15:25:48;10.07;;;7.10;;
4911;SDS011;2471;47.056;8.350;2023-05-02T15:28:14;8.73;;;6.63;;
4911;SDS011;2471;47.056;8.350;2023-05-02T15:30:40;9.20;;;7.37;;
4911;SDS011;2471;47.056;8.350;2023-05-02T15:33:06;9.60;;;7.10;;
4911;SDS011;2471;47.056;8.350;2023-05-02T15:35:34;6.23;;;5.50;;
4911;SDS011;2471;47.056;8.350;2023-05-02T15:38:00;10.23;;;6.37;;
4911;SDS011;2471;47.056;8.350;2023-05-02T15:40:26;7.70;;;6.90;;
4911;SDS011;2471;47.056;8.350;2023-05-02T15:42:52;8.10;;;6.63;;
4911;SDS011;2471;47.056;8.350;2023-05-02T15:45:18;7.07;;;6.37;;
4911;SDS011;2471;47.056;8.350;2023-05-02T15:47:44;7.20;;;6.50;;
4911;SDS011;2471;47.056;8.350;2023-05-02T15:50:10;10.40;;;5.93;;
4911;SDS011;2471;47.056;8.350;2023-05-02T15:52:36;8.30;;;6.43;;
4911;SDS011;2471;47.056;8.350;2023-05-02T15:55:02;7.67;;;6.57;;